sensor_id;sensor_type;location;lat;lon;timestamp;pressure;altitude;pressure_sealevel;temperature;humidity
14117;BME280;7137;51.436;6.544;2023-12-29T00:02:24;100518.09;;;11.03;87.10
14117;BME280;7137;51.436;6.544;2023-12-29T00:05:26;100527.63;;;11.04;86.50
14117;BME280;7137;51.436;6.544;2023-12-29T00:08:27;100520.47;;;11.09;86.80
14117;BME280;7137;51.436;6.544;2023-12-29T00:11:29;100524.84;;;11.08;87.00
14117;BME280;7137;51.436;6.544;2023-12-29T00:14:32;100530.97;;;11.07;86.91
14117;BME280;7137;51.436;6.544;2023-12-29T00:17:34;100525.75;;;11.07;87.20
14117;BME280;7137;51.436;6.544;2023-12-29T00:20:37;100525.69;;;11.09;86.74
14117;BME280;7137;51.436;6.544;2023-12-29T00:23:39;100520.34;;;11.12;86.96
14117;BME280;7137;51.436;6.544;2023-12-29T00:26:40;100517.66;;;11.15;87.09
14117;BME280;7137;51.436;6.544;2023-12-29T00:29:43;100501.16;;;11.13;87.37
14117;BME280;7137;51.436;6.544;2023-12-29T00:32:45;100501.16;;;11.13;86.70
14117;BME280;7137;51.436;6.544;2023-12-29T00:35:46;100502.03;;;11.13;86.84
14117;BME280;7137;51.436;6.544;2023-12-29T00:38:48;100488.09;;;11.13;86.44
14117;BME280;7137;51.436;6.544;2023-12-29T00:41:49;100482.81;;;11.14;86.88
14117;BME280;7137;51.436;6.544;2023-12-29T00:44:52;100480.28;;;11.11;86.60
14117;BME280;7137;51.436;6.544;2023-12-29T00:47:53;100481.13;;;11.12;86.92
14117;BME280;7137;51.436;6.544;2023-12-29T00:50:55;100477.66;;;11.11;87.20
14117;BME280;7137;51.436;6.544;2023-12-29T00:53:57;100471.66;;;11.09;87.22
14117;BME280;7137;51.436;6.544;2023-12-29T00:56:58;100469.81;;;11.11;87.41
14117;BME280;7137;51.436;6.544;2023-12-29T01:00:01;100473.34;;;11.10;86.99
14117;BME280;7137;51.436;6.544;2023-12-29T01:03:04;100461.38;;;11.05;86.87
14117;BME280;7137;51.436;6.544;2023-12-29T01:06:06;100450.88;;;11.06;88.38
14117;BME280;7137;51.436;6.544;2023-12-29T01:09:07;100454.56;;;11.00;87.38
14117;BME280;7137;51.436;6.544;2023-12-29T01:12:10;100450.06;;;11.04;87.11
14117;BME280;7137;51.436;6.544;2023-12-29T01:15:13;100443.16;;;11.03;87.27
14117;BME280;7137;51.436;6.544;2023-12-29T01:18:15;100449.94;;;11.07;87.28
14117;BME280;7137;51.436;6.544;2023-12-29T01:21:16;100448.44;;;11.02;88.12
14117;BME280;7137;51.436;6.544;2023-12-29T01:24:18;100436.34;;;10.99;87.31
14117;BME280;7137;51.436;6.544;2023-12-29T01:27:19;100444.97;;;11.01;87.59
14117;BME280;7137;51.436;6.544;2023-12-29T01:30:23;100445.13;;;10.96;88.10
14117;BME280;7137;51.436;6.544;2023-12-29T01:33:24;100439.22;;;10.91;87.93
14117;BME280;7137;51.436;6.544;2023-12-29T01:36:26;100436.63;;;10.91;88.15
14117;BME280;7137;51.436;6.544;2023-12-29T01:39:27;100441.03;;;10.89;89.01
14117;BME280;7137;51.436;6.544;2023-12-29T01:42:29;100449.06;;;10.85;89.89
14117;BME280;7137;51.436;6.544;2023-12-29T01:45:32;100442.34;;;10.78;92.07
14117;BME280;7137;51.436;6.544;2023-12-29T01:48:33;100453.34;;;10.62;93.93
14117;BME280;7137;51.436;6.544;2023-12-29T01:51:35;100442.16;;;10.59;96.19
14117;BME280;7137;51.436;6.544;2023-12-29T01:54:36;100456.13;;;10.33;99.07
14117;BME280;7137;51.436;6.544;2023-12-29T01:57:41;100461.75;;;10.21;100.00
14117;BME280;7137;51.436;6.544;2023-12-29T02:00:44;100462.88;;;10.14;100.00
14117;BME280;7137;51.436;6.544;2023-12-29T02:03:46;100459.16;;;9.94;100.00
14117;BME280;7137;51.436;6.544;2023-12-29T02:06:48;100455.13;;;9.84;100.00
14117;BME280;7137;51.436;6.544;2023-12-29T02:09:49;100459.50;;;9.83;100.00
14117;BME280;7137;51.436;6.544;2023-12-29T02:12:52;100447.31;;;9.84;100.00
14117;BME280;7137;51.436;6.544;2023-12-29T02:16:04;100463.69;;;9.89;100.00
14117;BME280;7137;51.436;6.544;2023-12-29T02:19:14;100450.63;;;9.89;100.00
14117;BME280;7137;51.436;6.544;2023-12-29T02:22:22;100446.28;;;9.90;100.00
14117;BME280;7137;51.436;6.544;2023-12-29T02:25:25;100445.81;;;9.77;100.00
14117;BME280;7137;51.436;6.544;2023-12-29T02:28:27;100454.50;;;9.77;100.00
14117;BME280;7137;51.436;6.544;2023-12-29T02:31:30;100436.44;;;9.71;100.00
14117;BME280;7137;51.436;6.544;2023-12-29T02:34:35;100443.31;;;9.74;100.00
14117;BME280;7137;51.436;6.544;2023-12-29T02:37:38;100420.69;;;9.74;100.00
14117;BME280;7137;51.436;6.544;2023-12-29T02:40:42;100401.53;;;9.75;100.00
14117;BME280;7137;51.436;6.544;2023-12-29T02:43:44;100395.28;;;9.79;100.00
14117;BME280;7137;51.436;6.544;2023-12-29T02:46:45;100380.38;;;9.83;100.00
14117;BME280;7137;51.436;6.544;2023-12-29T02:49:47;100390.75;;;9.85;100.00
14117;BME280;7137;51.436;6.544;2023-12-29T02:52:49;100392.34;;;9.90;100.00
14117;BME280;7137;51.436;6.544;2023-12-29T02:55:52;100394.78;;;9.95;100.00
14117;BME280;7137;51.436;6.544;2023-12-29T02:58:53;100398.25;;;9.95;100.00
14117;BME280;7137;51.436;6.544;2023-12-29T03:01:55;100400.44;;;10.07;100.00
14117;BME280;7137;51.436;6.544;2023-12-29T03:04:56;100404.63;;;10.11;100.00
14117;BME280;7137;51.436;6.544;2023-12-29T03:07:58;100397.63;;;10.14;100.00
14117;BME280;7137;51.436;6.544;2023-12-29T03:11:01;100397.50;;;10.17;100.00
14117;BME280;7137;51.436;6.544;2023-12-29T03:14:02;100395.50;;;10.25;100.00
14117;BME280;7137;51.436;6.544;2023-12-29T03:17:04;100402.47;;;10.24;100.00
14117;BME280;7137;51.436;6.544;2023-12-29T03:20:07;100402.53;;;10.23;100.00
14117;BME280;7137;51.436;6.544;2023-12-29T03:23:08;100408.34;;;10.31;100.00
14117;BME280;7137;51.436;6.544;2023-12-29T03:26:11;100410.63;;;10.40;100.00
14117;BME280;7137;51.436;6.544;2023-12-29T03:29:13;100421.97;;;10.39;99.88
14117;BME280;7137;51.436;6.544;2023-12-29T03:32:14;100423.53;;;10.45;99.49
14117;BME280;7137;51.436;6.544;2023-12-29T03:35:17;100415.34;;;10.54;98.65
14117;BME280;7137;51.436;6.544;2023-12-29T03:38:19;100413.59;;;10.54;99.32
14117;BME280;7137;51.436;6.544;2023-12-29T03:41:21;100409.88;;;10.61;99.04
14117;BME280;7137;51.436;6.544;2023-12-29T03:44:23;100396.91;;;10.58;97.92
14117;BME280;7137;51.436;6.544;2023-12-29T03:47:24;100399.47;;;10.60;97.60
14117;BME280;7137;51.436;6.544;2023-12-29T03:50:26;100386.63;;;10.54;97.31
14117;BME280;7137;51.436;6.544;2023-12-29T03:53:27;100387.47;;;10.54;97.72
14117;BME280;7137;51.436;6.544;2023-12-29T03:56:30;100393.72;;;10.50;98.04
14117;BME280;7137;51.436;6.544;2023-12-29T03:59:32;100381.47;;;10.52;97.02
14117;BME280;7137;51.436;6.544;2023-12-29T04:02:34;100378.97;;;10.49;97.74
14117;BME280;7137;51.436;6.544;2023-12-29T04:05:36;100397.13;;;10.52;97.26
14117;BME280;7137;51.436;6.544;2023-12-29T04:16:32;100394.31;;;10.58;96.33
14117;BME280;7137;51.436;6.544;2023-12-29T04:19:33;100392.53;;;10.59;96.49
14117;BME280;7137;51.436;6.544;2023-12-29T04:22:35;100394.25;;;10.60;96.14
14117;BME280;7137;51.436;6.544;2023-12-29T04:25:36;100390.72;;;10.61;96.89
14117;BME280;7137;51.436;6.544;2023-12-29T04:28:38;100386.63;;;10.54;96.80
14117;BME280;7137;51.436;6.544;2023-12-29T04:31:41;100377.09;;;10.53;96.75
14117;BME280;7137;51.436;6.544;2023-12-29T04:34:42;100377.19;;;10.50;96.43
14117;BME280;7137;51.436;6.544;2023-12-29T04:37:44;100373.91;;;10.45;97.21
14117;BME280;7137;51.436;6.544;2023-12-29T04:40:46;100380.72;;;10.49;96.79
14117;BME280;7137;51.436;6.544;2023-12-29T04:43:48;100386.34;;;10.38;96.76
14117;BME280;7137;51.436;6.544;2023-12-29T04:46:51;100380.13;;;10.42;97.96
14117;BME280;7137;51.436;6.544;2023-12-29T04:49:52;100387.09;;;10.42;96.80
14117;BME280;7137;51.436;6.544;2023-12-29T04:52:53;100377.53;;;10.40;96.27
14117;BME280;7137;51.436;6.544;2023-12-29T04:55:55;100395.78;;;10.42;96.45
14117;BME280;7137;51.436;6.544;2023-12-29T04:58:57;100374.72;;;10.47;94.79
14117;BME280;7137;51.436;6.544;2023-12-29T05:02:00;100380.00;;;10.45;94.41
14117;BME280;7137;51.436;6.544;2023-12-29T05:05:02;100373.69;;;10.51;94.52
14117;BME280;7137;51.436;6.544;2023-12-29T05:08:04;100381.81;;;10.43;94.34
14117;BME280;7137;51.436;6.544;2023-12-29T05:11:05;100385.16;;;10.47;93.84
14117;BME280;7137;51.436;6.544;2023-12-29T05:14:07;100380.72;;;10.49;93.43
14117;BME280;7137;51.436;6.544;2023-12-29T05:17:09;100381.56;;;10.49;93.97
14117;BME280;7137;51.436;6.544;2023-12-29T05:20:11;100377.25;;;10.48;94.63
14117;BME280;7137;51.436;6.544;2023-12-29T05:23:13;100380.84;;;10.46;93.09
14117;BME280;7137;51.436;6.544;2023-12-29T05:26:14;100386.84;;;10.48;93.80
14117;BME280;7137;51.436;6.544;2023-12-29T05:29:16;100400.09;;;10.43;93.32
14117;BME280;7137;51.436;6.544;2023-12-29T05:32:19;100401.69;;;10.47;94.19
14117;BME280;7137;51.436;6.544;2023-12-29T05:35:20;100395.72;;;10.44;94.36
14117;BME280;7137;51.436;6.544;2023-12-29T05:38:21;100389.59;;;10.45;93.14
14117;BME280;7137;51.436;6.544;2023-12-29T05:41:23;100397.41;;;10.45;93.24
14117;BME280;7137;51.436;6.544;2023-12-29T05:44:24;100410.69;;;10.38;93.51
14117;BME280;7137;51.436;6.544;2023-12-29T05:47:27;100397.56;;;10.40;93.55
14117;BME280;7137;51.436;6.544;2023-12-29T05:50:28;100416.75;;;10.39;92.18
14117;BME280;7137;51.436;6.544;2023-12-29T05:53:30;100413.28;;;10.38;93.32
14117;BME280;7137;51.436;6.544;2023-12-29T05:56:31;100406.03;;;10.47;93.57
14117;BME280;7137;51.436;6.544;2023-12-29T05:59:33;100410.69;;;10.38;92.91
14117;BME280;7137;51.436;6.544;2023-12-29T06:02:35;100413.34;;;10.37;93.87
14117;BME280;7137;51.436;6.544;2023-12-29T06:05:37;100418.63;;;10.35;93.53
14117;BME280;7137;51.436;6.544;2023-12-29T06:08:39;100419.53;;;10.34;94.48
14117;BME280;7137;51.436;6.544;2023-12-29T06:11:40;100417.84;;;10.33;94.24
14117;BME280;7137;51.436;6.544;2023-12-29T06:14:42;100416.19;;;10.31;94.24
14117;BME280;7137;51.436;6.544;2023-12-29T06:17:45;100420.09;;;10.18;94.61
14117;BME280;7137;51.436;6.544;2023-12-29T06:20:46;100415.97;;;10.10;96.28
14117;BME280;7137;51.436;6.544;2023-12-29T06:23:48;100401.97;;;10.13;95.50
14117;BME280;7137;51.436;6.544;2023-12-29T06:26:49;100423.00;;;10.08;95.69
14117;BME280;7137;51.436;6.544;2023-12-29T06:29:51;100412.22;;;10.19;95.97
14117;BME280;7137;51.436;6.544;2023-12-29T06:32:53;100417.94;;;10.30;94.77
14117;BME280;7137;51.436;6.544;2023-12-29T06:35:55;100427.38;;;10.34;95.18
14117;BME280;7137;51.436;6.544;2023-12-29T06:38:57;100417.66;;;10.38;94.56
14117;BME280;7137;51.436;6.544;2023-12-29T06:41:58;100414.06;;;10.42;95.14
14117;BME280;7137;51.436;6.544;2023-12-29T06:44:59;100412.06;;;10.49;95.29
14117;BME280;7137;51.436;6.544;2023-12-29T06:48:03;100406.66;;;10.53;94.90
14117;BME280;7137;51.436;6.544;2023-12-29T06:51:04;100404.34;;;10.46;94.55
14117;BME280;7137;51.436;6.544;2023-12-29T06:54:07;100399.63;;;10.55;95.20
14117;BME280;7137;51.436;6.544;2023-12-29T06:57:08;100405.94;;;10.50;94.29
14117;BME280;7137;51.436;6.544;2023-12-29T07:00:10;100394.69;;;10.48;96.16
14117;BME280;7137;51.436;6.544;2023-12-29T07:03:14;100397.69;;;10.37;99.17
14117;BME280;7137;51.436;6.544;2023-12-29T07:06:15;100388.25;;;10.33;100.00
14117;BME280;7137;51.436;6.544;2023-12-29T07:09:17;100390.59;;;10.16;100.00
14117;BME280;7137;51.436;6.544;2023-12-29T07:12:18;100389.25;;;10.04;100.00
14117;BME280;7137;51.436;6.544;2023-12-29T07:15:20;100394.38;;;10.07;100.00
14117;BME280;7137;51.436;6.544;2023-12-29T07:18:24;100397.28;;;9.98;100.00
14117;BME280;7137;51.436;6.544;2023-12-29T07:21:25;100393.44;;;10.08;100.00
14117;BME280;7137;51.436;6.544;2023-12-29T07:24:27;100385.25;;;9.94;100.00
14117;BME280;7137;51.436;6.544;2023-12-29T07:27:28;100378.09;;;9.99;100.00
14117;BME280;7137;51.436;6.544;2023-12-29T07:30:29;100375.31;;;10.05;100.00
14117;BME280;7137;51.436;6.544;2023-12-29T07:33:33;100377.22;;;10.00;100.00
14117;BME280;7137;51.436;6.544;2023-12-29T07:36:38;100390.28;;;9.98;100.00
14117;BME280;7137;51.436;6.544;2023-12-29T07:39:39;100390.34;;;9.97;100.00
14117;BME280;7137;51.436;6.544;2023-12-29T07:42:41;100385.06;;;10.00;100.00
14117;BME280;7137;51.436;6.544;2023-12-29T07:45:43;100387.66;;;10.00;100.00
14117;BME280;7137;51.436;6.544;2023-12-29T07:48:46;100375.41;;;10.02;100.00
14117;BME280;7137;51.436;6.544;2023-12-29T07:51:48;100399.47;;;10.10;100.00
14117;BME280;7137;51.436;6.544;2023-12-29T07:54:49;100395.22;;;10.07;100.00
14117;BME280;7137;51.436;6.544;2023-12-29T07:57:51;100394.19;;;10.11;100.00
14117;BME280;7137;51.436;6.544;2023-12-29T08:00:52;100395.09;;;10.10;100.00
14117;BME280;7137;51.436;6.544;2023-12-29T08:03:55;100397.72;;;10.10;100.00
14117;BME280;7137;51.436;6.544;2023-12-29T08:06:57;100395.09;;;10.10;100.00
14117;BME280;7137;51.436;6.544;2023-12-29T08:09:58;100395.91;;;10.12;100.00
14117;BME280;7137;51.436;6.544;2023-12-29T08:13:00;100399.34;;;10.15;100.00
14117;BME280;7137;51.436;6.544;2023-12-29T08:16:02;100403.78;;;10.11;100.00
14117;BME280;7137;51.436;6.544;2023-12-29T08:19:05;100396.06;;;10.08;100.00
14117;BME280;7137;51.436;6.544;2023-12-29T08:22:06;100382.06;;;10.10;100.00
14117;BME280;7137;51.436;6.544;2023-12-29T08:25:08;100392.88;;;10.00;100.00
14117;BME280;7137;51.436;6.544;2023-12-29T08:28:09;100385.09;;;9.98;100.00
14117;BME280;7137;51.436;6.544;2023-12-29T08:31:11;100384.22;;;9.99;100.00
14117;BME280;7137;51.436;6.544;2023-12-29T08:34:14;100386.69;;;10.02;100.00
14117;BME280;7137;51.436;6.544;2023-12-29T08:37:15;100399.81;;;10.01;100.00
14117;BME280;7137;51.436;6.544;2023-12-29T08:40:20;100388.22;;;10.08;100.00
14117;BME280;7137;51.436;6.544;2023-12-29T08:43:21;100403.03;;;10.07;100.00
14117;BME280;7137;51.436;6.544;2023-12-29T08:46:23;100397.63;;;10.14;100.00
14117;BME280;7137;51.436;6.544;2023-12-29T08:49:26;100406.84;;;10.24;100.00
14117;BME280;7137;51.436;6.544;2023-12-29T08:52:27;100404.25;;;10.24;100.00
14117;BME280;7137;51.436;6.544;2023-12-29T08:55:29;100402.47;;;10.24;100.00
14117;BME280;7137;51.436;6.544;2023-12-29T08:58:31;100381.53;;;10.26;100.00
14117;BME280;7137;51.436;6.544;2023-12-29T09:01:33;100378.13;;;10.24;100.00
14117;BME280;7137;51.436;6.544;2023-12-29T09:04:36;100388.63;;;10.22;100.00
14117;BME280;7137;51.436;6.544;2023-12-29T09:07:37;100380.03;;;10.19;100.00
14117;BME280;7137;51.436;6.544;2023-12-29T09:10:39;100394.91;;;10.17;100.00
14117;BME280;7137;51.436;6.544;2023-12-29T09:13:41;100383.66;;;10.15;100.00
14117;BME280;7137;51.436;6.544;2023-12-29T09:16:42;100386.81;;;10.24;100.00
14117;BME280;7137;51.436;6.544;2023-12-29T09:19:47;100394.84;;;10.18;100.00
14117;BME280;7137;51.436;6.544;2023-12-29T09:22:49;100413.88;;;10.22;100.00
14117;BME280;7137;51.436;6.544;2023-12-29T09:25:52;100421.59;;;10.25;100.00
14117;BME280;7137;51.436;6.544;2023-12-29T09:28:53;100426.75;;;10.28;100.00
14117;BME280;7137;51.436;6.544;2023-12-29T09:31:55;100423.97;;;10.32;100.00
14117;BME280;7137;51.436;6.544;2023-12-29T09:34:58;100424.59;;;10.39;100.00
14117;BME280;7137;51.436;6.544;2023-12-29T09:37:59;100436.16;;;10.32;100.00
14117;BME280;7137;51.436;6.544;2023-12-29T09:41:05;100436.97;;;10.34;100.00
14117;BME280;7137;51.436;6.544;2023-12-29T09:44:13;100424.34;;;10.20;100.00
14117;BME280;7137;51.436;6.544;2023-12-29T09:47:16;100411.34;;;10.19;100.00
14117;BME280;7137;51.436;6.544;2023-12-29T09:50:25;100422.53;;;9.97;100.00
14117;BME280;7137;51.436;6.544;2023-12-29T09:53:27;100418.13;;;9.99;100.00
14117;BME280;7137;51.436;6.544;2023-12-29T09:56:30;100425.22;;;9.94;100.00
14117;BME280;7137;51.436;6.544;2023-12-29T09:59:32;100410.66;;;9.89;100.00
14117;BME280;7137;51.436;6.544;2023-12-29T10:02:37;100410.00;;;9.82;100.00
14117;BME280;7137;51.436;6.544;2023-12-29T10:05:40;100404.53;;;9.90;100.00
14117;BME280;7137;51.436;6.544;2023-12-29T10:08:45;100435.72;;;9.93;100.00
14117;BME280;7137;51.436;6.544;2023-12-29T10:11:47;100432.44;;;9.88;100.00
14117;BME280;7137;51.436;6.544;2023-12-29T10:14:54;100427.06;;;9.92;100.00
14117;BME280;7137;51.436;6.544;2023-12-29T10:18:02;100434.94;;;9.91;100.00
14117;BME280;7137;51.436;6.544;2023-12-29T10:21:12;100441.59;;;9.99;100.00
14117;BME280;7137;51.436;6.544;2023-12-29T10:24:21;100443.78;;;10.11;100.00
14117;BME280;7137;51.436;6.544;2023-12-29T10:27:22;100429.94;;;10.09;100.00
14117;BME280;7137;51.436;6.544;2023-12-29T10:30:24;100424.59;;;10.12;100.00
14117;BME280;7137;51.436;6.544;2023-12-29T10:33:26;100433.94;;;10.20;100.00
14117;BME280;7137;51.436;6.544;2023-12-29T10:36:46;100422.56;;;10.22;100.00
14117;BME280;7137;51.436;6.544;2023-12-29T10:39:55;100429.00;;;10.37;100.00
14117;BME280;7137;51.436;6.544;2023-12-29T10:42:57;100426.81;;;10.50;100.00
14117;BME280;7137;51.436;6.544;2023-12-29T10:46:05;100424.56;;;10.64;100.00
14117;BME280;7137;51.436;6.544;2023-12-29T10:49:08;100430.94;;;10.80;100.00
14117;BME280;7137;51.436;6.544;2023-12-29T10:52:15;100439.72;;;10.78;100.00
14117;BME280;7137;51.436;6.544;2023-12-29T10:55:17;100441.94;;;10.65;100.00
14117;BME280;7137;51.436;6.544;2023-12-29T10:58:19;100439.50;;;10.84;100.00
14117;BME280;7137;51.436;6.544;2023-12-29T11:01:21;100439.34;;;10.88;100.00
14117;BME280;7137;51.436;6.544;2023-12-29T11:04:24;100442.50;;;10.96;100.00
14117;BME280;7137;51.436;6.544;2023-12-29T11:07:33;100434.09;;;11.12;100.00
14117;BME280;7137;51.436;6.544;2023-12-29T11:10:35;100429.41;;;10.98;100.00
14117;BME280;7137;51.436;6.544;2023-12-29T11:13:36;100437.31;;;11.18;100.00
14117;BME280;7137;51.436;6.544;2023-12-29T11:16:39;100437.59;;;11.11;100.00
14117;BME280;7137;51.436;6.544;2023-12-29T11:19:43;100431.13;;;10.97;100.00
14117;BME280;7137;51.436;6.544;2023-12-29T11:22:48;100437.06;;;11.03;100.00
14117;BME280;7137;51.436;6.544;2023-12-29T11:25:50;100440.97;;;10.91;100.00
14117;BME280;7137;51.436;6.544;2023-12-29T11:28:53;100427.47;;;11.03;100.00
14117;BME280;7137;51.436;6.544;2023-12-29T11:31:56;100436.81;;;11.09;100.00
14117;BME280;7137;51.436;6.544;2023-12-29T11:35:06;100422.19;;;11.05;100.00
14117;BME280;7137;51.436;6.544;2023-12-29T11:38:33;100430.41;;;11.17;100.00
14117;BME280;7137;51.436;6.544;2023-12-29T11:41:42;100417.53;;;11.13;100.00
14117;BME280;7137;51.436;6.544;2023-12-29T11:44:45;100414.59;;;11.20;100.00
14117;BME280;7137;51.436;6.544;2023-12-29T11:47:48;100407.09;;;11.11;100.00
14117;BME280;7137;51.436;6.544;2023-12-29T11:50:53;100408.44;;;11.21;100.00
14117;BME280;7137;51.436;6.544;2023-12-29T11:53:56;100416.91;;;11.28;100.00
14117;BME280;7137;51.436;6.544;2023-12-29T11:56:58;100411.75;;;11.26;100.00
14117;BME280;7137;51.436;6.544;2023-12-29T12:00:00;100410.03;;;11.25;100.00
14117;BME280;7137;51.436;6.544;2023-12-29T12:03:13;100409.72;;;11.11;100.00
14117;BME280;7137;51.436;6.544;2023-12-29T12:06:39;100418.72;;;11.26;100.00
14117;BME280;7137;51.436;6.544;2023-12-29T12:09:42;100421.66;;;11.18;100.00
14117;BME280;7137;51.436;6.544;2023-12-29T12:12:44;100417.53;;;11.13;100.00
14117;BME280;7137;51.436;6.544;2023-12-29T12:15:45;100412.75;;;11.00;100.00
14117;BME280;7137;51.436;6.544;2023-12-29T12:18:47;100401.31;;;11.03;100.00
14117;BME280;7137;51.436;6.544;2023-12-29T12:21:49;100413.88;;;11.17;100.00
14117;BME280;7137;51.436;6.544;2023-12-29T12:24:56;100403.53;;;11.14;100.00
14117;BME280;7137;51.436;6.544;2023-12-29T12:27:59;100406.22;;;11.12;100.00
14117;BME280;7137;51.436;6.544;2023-12-29T12:31:07;100401.59;;;11.19;100.00
14117;BME280;7137;51.436;6.544;2023-12-29T12:34:09;100400.88;;;10.92;100.00
14117;BME280;7137;51.436;6.544;2023-12-29T12:37:10;100385.25;;;10.67;100.00
14117;BME280;7137;51.436;6.544;2023-12-29T12:40:25;100387.09;;;10.65;100.00
14117;BME280;7137;51.436;6.544;2023-12-29T12:43:28;100391.41;;;10.66;100.00
14117;BME280;7137;51.436;6.544;2023-12-29T12:46:34;100388.50;;;10.74;100.00
14117;BME280;7137;51.436;6.544;2023-12-29T12:49:36;100386.81;;;10.73;100.00
14117;BME280;7137;51.436;6.544;2023-12-29T12:52:39;100371.34;;;10.66;100.00
14117;BME280;7137;51.436;6.544;2023-12-29T12:55:42;100373.75;;;10.73;100.00
14117;BME280;7137;51.436;6.544;2023-12-29T12:58:43;100359.19;;;10.65;100.00
14117;BME280;7137;51.436;6.544;2023-12-29T13:01:45;100368.53;;;10.73;100.00
14117;BME280;7137;51.436;6.544;2023-12-29T13:04:47;100362.22;;;10.78;100.00
14117;BME280;7137;51.436;6.544;2023-12-29T13:07:49;100367.25;;;10.83;100.00
14117;BME280;7137;51.436;6.544;2023-12-29T13:10:56;100369.84;;;10.83;100.00
14117;BME280;7137;51.436;6.544;2023-12-29T13:13:58;100354.09;;;10.86;100.00
14117;BME280;7137;51.436;6.544;2023-12-29T13:17:05;100349.78;;;10.85;100.00
14117;BME280;7137;51.436;6.544;2023-12-29T13:20:08;100352.19;;;10.89;100.00
14117;BME280;7137;51.436;6.544;2023-12-29T13:23:10;100346.59;;;10.77;100.00
14117;BME280;7137;51.436;6.544;2023-12-29T13:26:13;100351.56;;;10.83;100.00
14117;BME280;7137;51.436;6.544;2023-12-29T13:29:15;100352.94;;;10.93;100.00
14117;BME280;7137;51.436;6.544;2023-12-29T13:32:19;100363.88;;;11.03;100.00
14117;BME280;7137;51.436;6.544;2023-12-29T13:35:29;100358.84;;;10.98;100.00
14117;BME280;7137;51.436;6.544;2023-12-29T13:38:36;100355.31;;;10.99;100.00
14117;BME280;7137;51.436;6.544;2023-12-29T13:41:45;100354.88;;;11.10;100.00
14117;BME280;7137;51.436;6.544;2023-12-29T13:44:48;100344.63;;;11.05;100.00
14117;BME280;7137;51.436;6.544;2023-12-29T13:47:51;100353.31;;;11.06;100.00
14117;BME280;7137;51.436;6.544;2023-12-29T13:50:54;100355.06;;;11.05;100.00
14117;BME280;7137;51.436;6.544;2023-12-29T13:53:59;100341.75;;;11.11;100.00
14117;BME280;7137;51.436;6.544;2023-12-29T13:57:02;100345.28;;;11.10;100.00
14117;BME280;7137;51.436;6.544;2023-12-29T14:00:14;100338.47;;;11.06;100.00
14117;BME280;7137;51.436;6.544;2023-12-29T14:03:22;100333.19;;;11.08;100.00
14117;BME280;7137;51.436;6.544;2023-12-29T14:06:28;100334.09;;;11.07;100.00
14117;BME280;7137;51.436;6.544;2023-12-29T14:09:31;100334.81;;;11.10;100.00
14117;BME280;7137;51.436;6.544;2023-12-29T14:12:34;100335.50;;;11.15;100.00
14117;BME280;7137;51.436;6.544;2023-12-29T14:15:36;100341.88;;;11.08;100.00
14117;BME280;7137;51.436;6.544;2023-12-29T14:18:52;100334.03;;;11.08;100.00
14117;BME280;7137;51.436;6.544;2023-12-29T14:21:54;100340.44;;;11.01;100.00
14117;BME280;7137;51.436;6.544;2023-12-29T14:25:00;100340.38;;;11.03;100.00
14117;BME280;7137;51.436;6.544;2023-12-29T14:28:15;100337.94;;;10.98;100.00
14117;BME280;7137;51.436;6.544;2023-12-29T14:31:17;100333.72;;;10.94;100.00
14117;BME280;7137;51.436;6.544;2023-12-29T14:34:19;100333.84;;;10.91;100.00
14117;BME280;7137;51.436;6.544;2023-12-29T14:37:22;100335.81;;;10.86;100.00
14117;BME280;7137;51.436;6.544;2023-12-29T14:40:23;100330.91;;;10.77;100.00
14117;BME280;7137;51.436;6.544;2023-12-29T14:43:26;100343.69;;;10.84;100.00
14117;BME280;7137;51.436;6.544;2023-12-29T14:46:28;100342.81;;;10.84;100.00
14117;BME280;7137;51.436;6.544;2023-12-29T14:49:30;100349.09;;;10.80;100.00
14117;BME280;7137;51.436;6.544;2023-12-29T14:52:31;100348.53;;;10.72;100.00
14117;BME280;7137;51.436;6.544;2023-12-29T14:55:33;100345.06;;;10.71;100.00
14117;BME280;7137;51.436;6.544;2023-12-29T14:58:36;100352.72;;;10.76;100.00
14117;BME280;7137;51.436;6.544;2023-12-29T15:01:37;100350.75;;;10.59;100.00
14117;BME280;7137;51.436;6.544;2023-12-29T15:04:39;100346.88;;;10.69;100.00
14117;BME280;7137;51.436;6.544;2023-12-29T15:07:41;100351.31;;;10.67;100.00
14117;BME280;7137;51.436;6.544;2023-12-29T15:10:42;100341.22;;;10.58;100.00
14117;BME280;7137;51.436;6.544;2023-12-29T15:13:45;100353.19;;;10.63;100.00
14117;BME280;7137;51.436;6.544;2023-12-29T15:16:47;100347.34;;;10.57;100.00
14117;BME280;7137;51.436;6.544;2023-12-29T15:19:49;100348.13;;;10.35;100.00
14117;BME280;7137;51.436;6.544;2023-12-29T15:22:51;100344.00;;;10.30;100.00
14117;BME280;7137;51.436;6.544;2023-12-29T15:25:55;100343.09;;;10.31;100.00
14117;BME280;7137;51.436;6.544;2023-12-29T15:28:58;100338.78;;;10.30;100.00
14117;BME280;7137;51.436;6.544;2023-12-29T15:32:00;100343.50;;;10.44;100.00
14117;BME280;7137;51.436;6.544;2023-12-29T15:35:02;100340.03;;;10.43;100.00
14117;BME280;7137;51.436;6.544;2023-12-29T15:38:04;100336.00;;;10.34;100.00
14117;BME280;7137;51.436;6.544;2023-12-29T15:41:05;100332.28;;;10.40;100.00
14117;BME280;7137;51.436;6.544;2023-12-29T15:44:08;100338.00;;;10.26;100.00
14117;BME280;7137;51.436;6.544;2023-12-29T15:47:10;100325.88;;;10.25;100.00
14117;BME280;7137;51.436;6.544;2023-12-29T15:50:12;100326.41;;;10.35;100.00
14117;BME280;7137;51.436;6.544;2023-12-29T15:53:13;100316.06;;;10.32;100.00
14117;BME280;7137;51.436;6.544;2023-12-29T15:56:18;100314.31;;;10.32;100.00
14117;BME280;7137;51.436;6.544;2023-12-29T15:59:21;100314.06;;;10.38;100.00
14117;BME280;7137;51.436;6.544;2023-12-29T16:02:23;100314.31;;;10.32;100.00
14117;BME280;7137;51.436;6.544;2023-12-29T16:05:25;100304.19;;;10.23;100.00
14117;BME280;7137;51.436;6.544;2023-12-29T16:08:26;100295.34;;;10.27;100.00
14117;BME280;7137;51.436;6.544;2023-12-29T16:11:28;100303.44;;;10.20;100.00